メインページ
METAR-TAF:

METAR-TAF

空港 :

ブダペスト, ハンガリー

リスト・フェレンツ国際空港

緯度: 47-26N, 経度: 019-16E, 海抜: 151m

現時点の気象観測

当レポートは22分前の19:00(UTC)に作成
の風 8kt
気温 -7°C
湿度 62%
気圧 1022 hPa
視程10km以上
1,500メートル以下は雲なし、積乱雲なし

METAR: LHBP 251900Z 08008KT CAVOK M07/M13 Q1022 NOSIG

時間: 20:22 (19:22 UTC)

予報

当レポートは2時間7分前の17:15(UTC)に作成
予報は25日の 18時(UTC)から 26日の 18時(UTC)まで有効
北/北東の風 8kt
視程10km以上
1,500メートル以下は雲なし、積乱雲なし
26日の 06時(UTC)から 26日の 08時(UTC)まで徐々に
北東の風 12kt

TAF: LHBP 251715Z 2518/2618 02008KT CAVOK BECMG 2606/2608 05012KT

4,000以上の空港の気象観測と天気予報(METAR報とTAF報)

利用可能な観測所は地図上に黄色い丸と赤い丸で示す。

丸の上にカーソルを重ねると観測所名を参照できる。

次にクリックすると気象観測と天気予報を参照できる。

マップの切り替え:黒色「×」印の緑ボタンをクリックして拡大、「-」印の緑ボタンをクリックして縮小、緑色の三角印をクリックして隣りの地図に切り替え


METAR-TAF: